This site, now in its 15th season, is a labour of love and fun from one of Ottawa's most avid time trialists and number crunchers. It adheres to and is permitted by the laws of Canada, promotes the objectives of every bicycle club whose results are shown, and is donated free of charge by myself for your enjoyment and usage. If you would like results from series you ride in to be shown here, give me (celia@drmath.ca) a shout!


Index Page
ATT OTT WTT AATT CFCTT VVVTT
Help resultformat:
Case-sensitive

OBC Open TT Series - 1994-Jun-23 - 15km (Rockliffe Pkwy) (EvtFactor = 0.9363)

Weather (18:00): Mostly Cloudy. Temp.: 23.6C, Humidity: 38%, DewPoint: 8.6C, Wind: WNW 19km/h, Pressure: 99.49kPa, Visibility: 32.2km.
Weather (19:00): Cloudy. Temp.: 23.4C, Humidity: 39%, DewPoint: 8.7C, Wind: WNW 11km/h, Pressure: 99.46kPa, Visibility: 32.2km.
Weather (20:00): Cloudy. Temp.: 22.7C, Humidity: 43%, DewPoint: 9.4C, Wind: WNW 9km/h, Pressure: 99.46kPa, Visibility: 32.2km.

Send photos with description (when/where/what) of yourself on or off of bike to celia@drmath.ca

 
 

BESTS?
 
1 Roy, Patrick OBC 20:17 44.371 1/67 OVAM 1/14 0.9780
2 Harrington, Noel --- 20:20 44.262 2/67 OSEM 1/33 1.0911
3 McCutcheon, Drew --- 20:27 44.010 3/67 OSEM 2/33 1.1379
4 Field, Kevin --- 20:33 43.796 4/67 OSEM 3/33  
5 Bachman, Paul OBC 20:36 43.689 5/67 OSEM 4/33 1.1028
6 Rendall, Glen  --- 20:37 43.654 6/67 OSEM 5/33  
7 Hunter, Philip --- 20:46 43.339 7/67 OSEM 6/33 0.9204
8 Georgas, Chris OBC 20:53 43.097 8/67 OVBM 1/6 0.9645
9 Guenette, Jean-Yves OBC 20:55 43.028 9/67 OVAM 2/14 1.1583
10 Fraser, Ian --- 21:09 42.553 10/67 OSEM 7/33  
11 Hamilton, Peter --- 21:10 42.520 11/67 OSEM 8/33 1.0432
Simpson, Bob OBC 21:10 42.520 11/67 OVBM 2/6 0.9018
13 Cheney, Jason --- 21:15 42.353 13/67 OSEM 9/33  
14 Toelke, Joachim --- 21:17 42.287 14/67 OSEM 10/33 1.0309
15 Boudreau, Marc --- 21:18 42.254 15/67 OSEM 11/33 1.0071
Lau, Michael OBC 21:18 42.254 15/67 OSEM 11/33 1.0894
Parkin, Brian OBC 21:18 42.254 15/67 OVAM 3/14 1.0332
18 Hicks, Bob  OBC 21:21 42.155 18/67 OVBM 3/6 1.0332
Reinisch, Stephen --- 21:21 42.155 18/67 OSEM 13/33 1.0670
20 Krausbar, Gunther OBC 21:22 42.122 20/67 OSEM 14/33 1.2582
21 Buffa, Alex  OBC 21:28 41.925 21/67 OSEM 15/33 1.1085
22 St-Amour, Pierre OBC 21:34 41.731 22/67 OVAM 4/14 0.9409
23 Martignago, Mike OBC 21:39 41.570 23/67 OVAM 5/14 0.9930
24 Johns, Mike --- 21:42 41.475 24/67 OSEM 16/33 0.9369
25 Boileau, Greg OBC 22:08 40.663 25/67 OJUM 1/5 1.1246
26 Arts, Michael --- 22:11 40.571 26/67 OJUM 2/5 1.0715
27 de Snayer, Kevin --- 22:12 40.541 27/67 OSEM 17/33 1.0504
28 Murray, Ken --- 22:18 40.359 28/67 OJUM 3/5 1.0272
Price, Chris --- 22:18 40.359 28/67 OSEM 18/33  
30 Leach, Mike --- 22:19 40.329 30/67 OSEM 19/33 0.9844
31 Franks, Greg OBC 22:21 40.268 31/67 OVAM 6/14 1.0756
32 Munden, David --- 22:29 40.030 32/67 OSEM 20/33 1.0067
33 Murray, Val OBC 22:36 39.823 33/67 OCAM 1/1 1.0000
34 Budd, Daniel OBC 22:40 39.706 34/67 OSEM 21/33 0.9781
Stewart, Rob OBC 22:40 39.706 34/67 OVAM 7/14 1.0067
36 Otto, Christian --- 22:46 39.531 36/67 OSEM 22/33  
37 Thériault, Louis --- 22:47 39.503 37/67 OSEM 23/33  
38 Humphreys, Les  OBC/ABC 22:49 39.445 38/67 OVBM 4/6 1.0066
39 Bence, John OBC 22:53 39.330 39/67 OSEM 24/33  
40 Austen, Ian  OBC 22:59 39.159 40/67 OVAM 8/14 0.9155
41 Hicks, Terry --- 23:12 38.793 41/67 OVAM 9/14 1.0195
Matthews, Paul --- 23:12 38.793 41/67 OVAM 9/14  
43 Bachman, Mike OBC 23:18 38.627 43/67 OVCM 1/2 0.9830
44 Revesz, Erika  OBC 23:20 38.571 44/67 OVAF 1/3 1.0457
45 Tamborine, Don --- 23:29 38.325 45/67 OVBM 5/6 0.9915
46 Barber, Brian --- 23:33 38.217 46/67 OSEM 25/33 1.0021
47 Hays, Ryan --- 23:38 38.082 47/67 U18M 1/1 1.2317
48 Jofriet, Eric --- 23:39 38.055 48/67 OSEM 26/33 1.2412
49 Aller, Mo OBC 23:40 38.028 49/67 OVCM 2/2 0.9915
50 Menke, Kurt --- 23:46 37.868 50/67 OSEM 27/33 1.0579
51 Delisle, Stephane --- 23:47 37.842 51/67 OSEM 28/33 1.0492
52 Montpetit, Stephane --- 23:53 37.683 52/67 OSEM 29/33 1.0707
53 Anderson, Allan OBC 24:05 37.370 53/67 OVAM 11/14 1.1075
54 Davison, Peter OBC 24:11 37.216 54/67 OVBM 6/6  
55 Weiman, David --- 24:16 37.088 55/67 OSEM 30/33 0.9857
56 James, Peter OBC 24:34 36.635 56/67 OVAM 12/14 1.1606
57 Soucy, Dominic --- 25:10 35.762 57/67 OSEM 31/33 1.0984
58 Polischuk, Susan --- 25:14 35.667 58/67 OSEF 1/1 0.9494
59 Fortey, Brian ABC 25:15 35.644 59/67 OJUM 4/5 1.0381
60 Erskine, James --- 25:21 35.503 60/67 OSEM 32/33  
61 McInnis, Celia  OBC 25:28 35.340 61/67 OVAF 2/3 0.9291
62 Ajersch, Mary  OBC 25:36 35.156 62/67 OVBF 1/1 0.9767
63 Chen, Jonathan --- 25:52 34.794 63/67 OSEM 33/33 1.4909
64 Callum, John ABC 26:15 34.286 64/67 OJUM 5/5 0.8180
65 Montserrat, Fabienne OBC 27:45 32.432 65/67 OVAF 3/3 0.9058
66 Cowan, Norman  OBC DNF   66/67 OVAM 13/14  
Redding, Neil OBC DNF   66/67 OVAM 13/14  
 
Average Speed of all of the above 65 finishes (975km in 24:37:41):39.589
>>>Average of the Average Speeds for these 65 finishes39.792<<<
 

The number of data records shown above is 67
The server processing of your query took: 0 wallclock secs ( 0.09 usr + 0.00 sys = 0.09 CPU)

     


Apr 1 (Good Friday) Apr 14 Apr 21 Apr 28
May 3 May 5 May 10 May 12 (22km) May 15 (40km) May 17 May 19 May 24 May 24 (10km) May 26 (cancelled) May 29 (40km)
Jun 2 Jun 5 (38km) Jun 7 Jun 9 Jun 14 (40km) Jun 14 Jun 16 Jun 21 Jun 21
  Jun 23  
Jun 26 (40km/80km) Jun 28 (40km) Jun 28 Jun 29
Jul 5 Jul 6 Jul 7 Jul 10 (22km) Jul 12 Jul 13 Jul 14 Jul 19 Jul 20 Jul 21 Jul 24 (38km) Jul 26 Jul 27 Jul 28
Aug 2 Aug 3 Aug 9 Aug 10 Aug 11 Aug 14 (40km/80km) Aug 16 Aug 17 Aug 18 Aug 20 (22km) Aug 23 Aug 24 Aug 28 (38km) Aug 30 (Invitational) Aug 31
Sep 1 Sep 6 Sep 8 Sep 13 Sep 20 Sep 25 (40km)

OTT Rankings
Best       Best by category
WTT Rankings for OBC Members
5 Best 15km     5 Best 15km by category
OBC Member Best Three 15km Rankings
Overall     by category
OBC BAR Ranking
Overall     by category     Rider "Consistency-Graph"
ABC BAR Ranking
Overall     by category     Rider "Consistency-Graph"
Other years
TT Calculator All TT People All TT events
ABC Home VVV Home
CKAP GOLD MEDAL
Other Links

Please send your comments and suggestions to: Celia McInnis
Copyright © 1998-2011 Celia McInnis. All rights reserved. Links are welcomed.